createdAt,value
2019-01-15T00:01:51.844Z,90.04
2019-01-15T00:04:22.817Z,89.96
2019-01-15T00:06:52.629Z,89.82
2019-01-15T00:09:23.409Z,89.77
2019-01-15T00:11:54.424Z,89.80
2019-01-15T00:14:23.719Z,89.80
2019-01-15T00:16:53.017Z,89.83
2019-01-15T00:19:22.467Z,90.29
2019-01-15T00:21:51.676Z,89.98
2019-01-15T00:24:21.266Z,89.83
2019-01-15T00:26:51.682Z,89.60
2019-01-15T00:29:20.970Z,89.61
2019-01-15T00:32:08.333Z,89.85
2019-01-15T00:34:37.552Z,89.52
2019-01-15T00:37:06.775Z,88.92
2019-01-15T00:39:36.347Z,89.53
2019-01-15T00:42:06.201Z,89.53
2019-01-15T00:44:35.571Z,89.61
2019-01-15T00:47:06.608Z,90.05
2019-01-15T00:49:35.851Z,89.62
2019-01-15T00:52:05.059Z,89.23
2019-01-15T00:54:35.486Z,88.92
2019-01-15T00:57:06.406Z,88.34
2019-01-15T00:59:35.808Z,88.55
2019-01-15T01:02:05.534Z,88.55
2019-01-15T01:04:34.817Z,89.36
2019-01-15T01:07:05.645Z,89.23
2019-01-15T01:09:34.955Z,89.96
2019-01-15T01:12:04.355Z,89.17
2019-01-15T01:14:35.485Z,89.63
2019-01-15T01:17:06.341Z,89.31
2019-01-15T01:19:40.537Z,88.78
2019-01-15T01:22:11.855Z,88.88
2019-01-15T01:24:41.185Z,89.64
2019-01-15T01:27:11.972Z,89.81
2019-01-15T01:29:42.304Z,90.11
2019-01-15T01:32:11.504Z,89.40
2019-01-15T01:34:58.899Z,89.18
2019-01-15T01:37:28.403Z,89.18
2019-01-15T01:39:57.858Z,89.86
2019-01-15T01:42:29.517Z,89.26
2019-01-15T01:45:17.726Z,90.29
2019-01-15T01:47:46.954Z,90.21
2019-01-15T01:50:16.246Z,90.21
2019-01-15T01:52:45.790Z,90.10
2019-01-15T01:55:16.875Z,90.10
2019-01-15T02:00:35.291Z,89.84
2019-01-15T02:03:04.612Z,89.48
2019-01-15T02:05:37.014Z,89.61
2019-01-15T02:08:06.841Z,90.35
2019-01-15T02:10:36.094Z,90.05
2019-01-15T02:13:05.333Z,90.12
2019-01-15T02:15:34.844Z,90.67
2019-01-15T02:18:04.574Z,89.43
2019-01-15T02:20:35.522Z,90.50
2019-01-15T02:23:04.957Z,90.50
2019-01-15T02:25:34.264Z,90.67
2019-01-15T02:28:03.595Z,90.15
2019-01-15T02:30:33.203Z,90.33
2019-01-15T02:33:02.658Z,90.12
2019-01-15T02:35:31.917Z,90.67
2019-01-15T02:38:01.831Z,90.67
2019-01-15T02:40:31.070Z,89.74
2019-01-15T02:43:00.285Z,90.20
2019-01-15T02:45:29.677Z,90.14
2019-01-15T02:47:59.932Z,90.11
2019-01-15T02:50:30.248Z,90.59
2019-01-15T02:52:59.495Z,91.00
2019-01-15T02:55:29.717Z,91.00
2019-01-15T02:57:58.950Z,91.27
2019-01-15T03:00:28.592Z,91.52
2019-01-15T03:02:57.910Z,91.90
2019-01-15T03:05:27.255Z,91.81
2019-01-15T03:07:56.486Z,91.08
2019-01-15T03:10:26.182Z,91.54
2019-01-15T03:12:57.232Z,91.25
2019-01-15T03:15:30.539Z,91.30
2019-01-15T03:17:59.786Z,91.06
2019-01-15T03:20:28.976Z,91.45
2019-01-15T03:22:58.184Z,91.01
2019-01-15T03:25:27.590Z,91.30
2019-01-15T03:27:59.025Z,91.30
2019-01-15T03:30:29.264Z,91.20
2019-01-15T03:32:58.496Z,92.18
2019-01-15T03:35:27.733Z,91.89
2019-01-15T03:37:56.962Z,91.89
2019-01-15T03:40:27.215Z,91.71
2019-01-15T03:43:03.238Z,91.71
2019-01-15T03:45:27.940Z,91.61
2019-01-15T03:47:58.688Z,92.26
2019-01-15T03:50:27.917Z,92.26
2019-01-15T03:52:59.090Z,91.60
2019-01-15T03:55:28.390Z,91.60
2019-01-15T03:57:57.615Z,91.48
2019-01-15T04:00:27.625Z,92.45
2019-01-15T04:02:58.747Z,91.94
2019-01-15T04:05:27.963Z,91.94
2019-01-15T04:08:01.492Z,92.39
2019-01-15T04:10:30.739Z,92.30
2019-01-15T04:13:00.280Z,92.60
2019-01-15T04:15:29.967Z,92.60
2019-01-15T04:17:59.469Z,92.50
2019-01-15T04:20:28.898Z,92.88
2019-01-15T04:22:58.677Z,92.30
2019-01-15T04:25:31.381Z,92.95
2019-01-15T04:28:00.566Z,92.95
2019-01-15T04:30:29.808Z,91.69
2019-01-15T04:32:59.263Z,92.31
2019-01-15T04:35:30.381Z,92.21
2019-01-15T04:38:03.693Z,92.47
2019-01-15T04:40:33.038Z,93.03
2019-01-15T04:43:03.429Z,93.29
2019-01-15T04:45:32.950Z,93.10
2019-01-15T04:48:02.156Z,92.95
2019-01-15T04:50:31.435Z,92.86
2019-01-15T04:53:02.857Z,92.86
2019-01-15T04:58:25.274Z,92.39
2019-01-15T05:00:55.804Z,91.94
2019-01-15T05:03:25.050Z,92.41
2019-01-15T05:05:54.558Z,91.86
2019-01-15T05:08:24.157Z,91.86
2019-01-15T05:13:40.674Z,91.44
2019-01-15T05:16:28.213Z,91.44
2019-01-15T05:18:57.627Z,91.93
2019-01-15T05:21:28.857Z,92.18
2019-01-15T05:23:59.224Z,91.98
2019-01-15T05:26:29.730Z,91.92
2019-01-15T05:28:59.042Z,91.93
2019-01-15T05:31:28.675Z,92.34
2019-01-15T05:33:57.939Z,92.25
2019-01-15T05:36:27.188Z,92.01
2019-01-15T05:38:56.583Z,92.01
2019-01-15T05:41:25.817Z,92.05
2019-01-15T05:43:55.035Z,92.05
2019-01-15T05:46:25.839Z,92.21
2019-01-15T05:48:55.139Z,92.18
2019-01-15T05:51:34.280Z,91.78
2019-01-15T05:54:03.674Z,91.37
2019-01-15T05:56:33.976Z,91.37
2019-01-15T05:59:03.189Z,92.01
2019-01-15T06:01:35.634Z,92.05
2019-01-15T06:04:05.433Z,91.43
2019-01-15T06:06:34.867Z,92.07
2019-01-15T06:09:05.315Z,92.32
2019-01-15T06:11:37.452Z,91.80
2019-01-15T06:14:07.206Z,92.01
2019-01-15T06:16:37.585Z,91.90
2019-01-15T06:19:07.290Z,91.61
2019-01-15T06:21:36.486Z,92.74
2019-01-15T06:24:05.987Z,92.74
2019-01-15T06:26:35.281Z,92.28
2019-01-15T06:29:05.054Z,91.73
2019-01-15T06:31:35.591Z,91.88
2019-01-15T06:36:55.999Z,91.59
2019-01-15T06:39:25.206Z,91.59
2019-01-15T06:42:12.259Z,91.63
2019-01-15T06:44:41.658Z,91.63
2019-01-15T06:47:11.369Z,91.08
2019-01-15T06:49:58.973Z,91.08
2019-01-15T06:52:29.799Z,91.22
2019-01-15T06:54:59.000Z,91.22
2019-01-15T06:57:28.299Z,91.60
2019-01-15T06:59:57.608Z,91.60
2019-01-15T07:05:14.353Z,91.41
2019-01-15T07:07:44.724Z,91.39
2019-01-15T07:10:17.784Z,90.47
2019-01-15T07:12:47.454Z,91.07
2019-01-15T07:15:17.354Z,91.38
2019-01-15T07:17:46.603Z,92.05
2019-01-15T07:20:17.457Z,91.69
2019-01-15T07:22:51.521Z,91.69
2019-01-15T07:25:21.264Z,90.95
2019-01-15T07:27:50.507Z,91.75
2019-01-15T07:30:23.832Z,91.75
2019-01-15T07:32:53.024Z,91.77
2019-01-15T07:35:23.485Z,90.99
2019-01-15T07:37:52.738Z,91.47
2019-01-15T07:40:21.965Z,91.47
2019-01-15T07:42:54.589Z,91.74
2019-01-15T07:45:23.863Z,92.17
2019-01-15T07:47:53.202Z,92.17
2019-01-15T07:50:23.260Z,91.86
2019-01-15T07:52:53.908Z,92.34
2019-01-15T07:55:23.423Z,91.77
2019-01-15T07:57:53.141Z,91.29
2019-01-15T08:00:22.696Z,91.61
2019-01-15T08:02:52.501Z,91.57
2019-01-15T08:05:23.364Z,91.93
2019-01-15T08:07:52.597Z,90.94
2019-01-15T08:10:22.096Z,91.28
2019-01-15T08:12:51.832Z,91.47
2019-01-15T08:15:22.704Z,91.47
2019-01-15T08:17:52.048Z,90.92
2019-01-15T08:20:21.245Z,90.98
2019-01-15T08:22:50.662Z,90.71
2019-01-15T08:28:07.092Z,91.16
2019-01-15T08:30:37.595Z,91.89
2019-01-15T08:33:07.015Z,90.91
2019-01-15T08:35:36.311Z,91.30
2019-01-15T08:38:06.390Z,91.02
2019-01-15T08:40:35.641Z,91.28
2019-01-15T08:43:06.207Z,91.84
2019-01-15T08:45:35.618Z,91.48
2019-01-15T08:48:10.680Z,91.89
2019-01-15T08:50:40.160Z,92.14
2019-01-15T08:53:09.463Z,92.14
2019-01-15T08:55:38.700Z,92.13
2019-01-15T08:58:09.663Z,92.13
2019-01-15T09:00:38.853Z,92.06
2019-01-15T09:03:08.153Z,92.18
2019-01-15T09:05:37.895Z,92.00
2019-01-15T09:08:07.207Z,91.37
2019-01-15T09:10:36.405Z,90.81
2019-01-15T09:13:05.757Z,90.81
2019-01-15T09:15:36.889Z,90.94
2019-01-15T09:18:23.986Z,90.94
2019-01-15T09:20:53.319Z,91.82
2019-01-15T09:23:22.512Z,91.82
2019-01-15T09:25:52.060Z,91.77
2019-01-15T09:28:22.504Z,91.16
2019-01-15T09:30:53.583Z,91.41
2019-01-15T09:33:22.959Z,91.41
2019-01-15T09:35:53.676Z,91.03
2019-01-15T09:38:22.876Z,91.21
2019-01-15T09:40:52.280Z,91.17
2019-01-15T09:43:25.186Z,91.38
2019-01-15T09:45:54.461Z,91.38
2019-01-15T09:48:30.422Z,90.21
2019-01-15T09:50:59.751Z,90.21
2019-01-15T09:53:29.403Z,90.01
2019-01-15T09:55:58.642Z,91.24
2019-01-15T09:58:27.853Z,91.24
2019-01-15T10:00:57.506Z,90.10
2019-01-15T10:03:26.745Z,90.89
2019-01-15T10:05:57.089Z,90.81
2019-01-15T10:08:26.844Z,90.25
2019-01-15T10:10:56.151Z,90.25
2019-01-15T10:13:44.259Z,91.12
2019-01-15T10:16:13.875Z,90.82
2019-01-15T10:18:43.774Z,90.82
2019-01-15T10:21:13.087Z,90.90
2019-01-15T10:23:42.336Z,91.00
2019-01-15T10:26:12.102Z,90.92
2019-01-15T10:28:42.961Z,90.55
2019-01-15T10:31:55.643Z,90.55
2019-01-15T10:34:50.478Z,91.08
2019-01-15T10:37:33.013Z,91.11
2019-01-15T10:40:06.513Z,91.11
2019-01-15T10:42:46.869Z,90.34
2019-01-15T10:45:16.195Z,90.34
2019-01-15T10:47:45.389Z,89.91
2019-01-15T10:50:14.621Z,89.02
2019-01-15T10:52:44.190Z,89.99
2019-01-15T10:55:13.507Z,89.23
2019-01-15T10:57:42.709Z,88.86
2019-01-15T11:00:14.958Z,88.99
2019-01-15T11:03:02.520Z,88.52
2019-01-15T11:05:31.731Z,88.52
2019-01-15T11:08:01.036Z,88.22
2019-01-15T11:10:30.393Z,89.05
2019-01-15T11:15:46.824Z,88.32
2019-01-15T11:18:17.367Z,88.32
2019-01-15T11:20:46.627Z,88.17
2019-01-15T11:23:15.940Z,88.12
2019-01-15T11:25:45.581Z,88.79
2019-01-15T11:28:19.474Z,88.79
2019-01-15T11:30:53.677Z,86.63
2019-01-15T11:33:23.025Z,86.63
2019-01-15T11:35:52.348Z,88.05
2019-01-15T11:38:21.693Z,88.05
2019-01-15T11:40:50.965Z,87.43
2019-01-15T11:43:22.596Z,87.95
2019-01-15T11:45:51.836Z,87.43
2019-01-15T11:48:21.400Z,87.43
2019-01-15T11:50:50.611Z,87.94
2019-01-15T11:53:20.039Z,87.29
2019-01-15T11:55:49.436Z,87.02
2019-01-15T11:58:19.042Z,86.69
2019-01-15T12:00:59.824Z,86.69
2019-01-15T12:03:42.485Z,85.82
2019-01-15T12:06:21.593Z,86.30
2019-01-15T12:09:12.940Z,86.67
2019-01-15T12:12:00.803Z,85.67
2019-01-15T12:14:47.753Z,85.54
2019-01-15T12:20:34.812Z,85.85
2019-01-15T12:23:22.959Z,84.69
2019-01-15T12:26:03.075Z,84.84
2019-01-15T12:28:52.845Z,85.67
2019-01-15T12:31:36.848Z,85.67
2019-01-15T12:34:17.355Z,84.71
2019-01-15T12:36:55.974Z,84.71
2019-01-15T12:39:44.221Z,84.93
2019-01-15T12:42:39.696Z,86.18
2019-01-15T12:45:32.127Z,86.18
2019-01-15T12:48:19.863Z,84.63
2019-01-15T12:51:13.129Z,84.81
2019-01-15T12:53:57.831Z,84.67
2019-01-15T12:56:37.927Z,84.67
2019-01-15T12:59:25.279Z,84.25
2019-01-15T13:02:13.436Z,85.09
2019-01-15T13:04:52.069Z,85.59
2019-01-15T13:07:31.821Z,85.59
2019-01-15T13:10:20.260Z,84.97
2019-01-15T13:13:03.094Z,85.35
2019-01-15T13:15:48.093Z,85.71
2019-01-15T13:18:36.335Z,85.71
2019-01-15T13:21:24.958Z,87.71
2019-01-15T13:24:14.732Z,87.22
2019-01-15T13:27:05.400Z,87.22
2019-01-15T13:29:46.335Z,88.17
2019-01-15T13:32:23.506Z,87.76
2019-01-15T13:35:11.980Z,88.47
2019-01-15T13:38:00.157Z,88.47
2019-01-15T13:40:46.247Z,89.44
2019-01-15T13:43:29.106Z,89.19
2019-01-15T13:46:35.645Z,89.44
2019-01-15T13:49:23.754Z,88.65
2019-01-15T13:52:12.144Z,88.65
2019-01-15T13:55:00.562Z,89.37
2019-01-15T13:57:48.709Z,89.11
2019-01-15T14:00:46.946Z,89.52
2019-01-15T14:06:35.490Z,88.85
2019-01-15T14:09:26.236Z,87.66
2019-01-15T14:12:11.134Z,87.66
2019-01-15T14:14:52.037Z,88.08
2019-01-15T14:17:48.327Z,88.08
2019-01-15T14:20:41.934Z,89.08
2019-01-15T14:23:22.909Z,89.29
2019-01-15T14:26:13.116Z,89.29
2019-01-15T14:28:52.991Z,88.91
2019-01-15T14:31:42.016Z,88.05
2019-01-15T14:34:24.955Z,88.05
2019-01-15T14:37:09.397Z,89.77
2019-01-15T14:39:57.688Z,89.77
2019-01-15T14:42:46.257Z,90.37
2019-01-15T14:45:37.491Z,90.14
2019-01-15T14:48:26.224Z,90.20
2019-01-15T14:51:14.445Z,90.98
2019-01-15T14:54:14.223Z,90.56
2019-01-15T14:56:59.248Z,90.20
2019-01-15T14:59:46.592Z,90.20
2019-01-15T15:02:32.171Z,90.32
2019-01-15T15:05:14.990Z,90.34
2019-01-15T15:10:59.959Z,91.42
2019-01-15T15:13:40.132Z,90.77
2019-01-15T15:16:28.448Z,90.38
2019-01-15T15:19:20.567Z,90.38
2019-01-15T15:22:08.807Z,91.45
2019-01-15T15:24:55.777Z,90.43
2019-01-15T15:27:44.711Z,90.93
2019-01-15T15:30:28.427Z,90.46
2019-01-15T15:33:11.651Z,90.96
2019-01-15T15:35:59.818Z,91.19
2019-01-15T15:38:41.478Z,91.38
2019-01-15T15:41:21.498Z,91.55
2019-01-15T15:44:09.976Z,90.64
2019-01-15T15:46:53.231Z,90.51
2019-01-15T15:49:41.438Z,90.91
2019-01-15T15:52:30.849Z,91.32
2019-01-15T15:55:19.644Z,90.65
2019-01-15T15:58:01.414Z,90.95
2019-01-15T16:00:49.974Z,90.72
2019-01-15T16:03:27.862Z,90.72
2019-01-15T16:06:11.746Z,90.42
2019-01-15T16:08:57.759Z,91.20
2019-01-15T16:11:44.882Z,90.85
2019-01-15T16:14:31.924Z,91.02
2019-01-15T16:17:10.946Z,91.02
2019-01-15T16:20:01.946Z,91.02
2019-01-15T16:22:50.596Z,91.19
2019-01-15T16:25:38.812Z,90.44
2019-01-15T16:28:39.244Z,90.59
2019-01-15T16:31:28.889Z,90.04
2019-01-15T16:34:12.235Z,90.04
2019-01-15T16:37:01.593Z,89.94
2019-01-15T16:39:42.516Z,89.94
2019-01-15T16:42:23.945Z,90.12
2019-01-15T16:45:08.792Z,90.69
2019-01-15T16:47:58.705Z,90.69
2019-01-15T16:50:46.880Z,90.26
2019-01-15T16:53:27.288Z,90.68
2019-01-15T16:56:15.599Z,90.68
2019-01-15T16:59:04.318Z,90.47
2019-01-15T17:01:57.471Z,89.92
2019-01-15T17:04:45.955Z,90.27
2019-01-15T17:07:30.997Z,90.27
2019-01-15T17:10:13.540Z,89.22
2019-01-15T17:12:58.535Z,89.90
2019-01-15T17:15:46.080Z,89.90
2019-01-15T17:18:26.875Z,89.79
2019-01-15T17:21:10.238Z,89.97
2019-01-15T17:23:59.712Z,89.73
2019-01-15T17:26:48.266Z,89.73
2019-01-15T17:29:29.712Z,89.10
2019-01-15T17:32:10.850Z,89.32
2019-01-15T17:35:00.549Z,89.74
2019-01-15T17:37:41.273Z,89.45
2019-01-15T17:40:21.109Z,89.96
2019-01-15T17:43:09.444Z,89.96
2019-01-15T17:45:54.429Z,89.49
2019-01-15T17:48:44.118Z,89.49
2019-01-15T17:51:32.393Z,89.84
2019-01-15T17:54:21.103Z,89.05
2019-01-15T17:57:10.062Z,89.05
2019-01-15T18:00:04.093Z,89.47
2019-01-15T18:03:05.160Z,89.81
2019-01-15T18:05:53.311Z,89.63
2019-01-15T18:08:37.800Z,88.71
2019-01-15T18:11:26.676Z,88.80
2019-01-15T18:14:15.766Z,88.76
2019-01-15T18:16:57.704Z,89.10
2019-01-15T18:19:38.757Z,89.10
2019-01-15T18:22:23.257Z,89.44
2019-01-15T18:25:09.097Z,89.02
2019-01-15T18:27:55.650Z,88.46
2019-01-15T18:30:42.556Z,88.58
2019-01-15T18:33:31.070Z,89.15
2019-01-15T18:36:18.455Z,89.15
2019-01-15T18:39:06.695Z,89.14
2019-01-15T18:41:46.242Z,89.49
2019-01-15T18:44:34.562Z,89.49
2019-01-15T18:47:23.146Z,89.50
2019-01-15T18:50:10.992Z,89.50
2019-01-15T18:52:59.844Z,89.55
2019-01-15T18:55:48.038Z,88.83
2019-01-15T18:58:31.339Z,89.30
2019-01-15T19:01:13.346Z,89.30
2019-01-15T19:06:58.770Z,89.11
2019-01-15T19:09:46.412Z,89.11
2019-01-15T19:12:34.904Z,89.42
2019-01-15T19:15:23.715Z,88.89
2019-01-15T19:18:14.189Z,88.89
2019-01-15T19:20:59.448Z,89.04
2019-01-15T19:23:47.794Z,88.61
2019-01-15T19:26:34.559Z,88.68
2019-01-15T19:29:19.147Z,88.27
2019-01-15T19:32:01.026Z,88.32
2019-01-15T19:34:45.926Z,88.32
2019-01-15T19:37:24.942Z,88.36
2019-01-15T19:40:04.149Z,88.20
2019-01-15T19:42:52.294Z,88.20
2019-01-15T19:45:40.973Z,87.87
2019-01-15T19:48:27.971Z,87.97
2019-01-15T19:51:12.044Z,87.85
2019-01-15T19:53:57.633Z,87.90
2019-01-15T19:56:37.457Z,87.91
2019-01-15T19:59:19.033Z,87.91
2019-01-15T20:02:07.238Z,87.60
2019-01-15T20:04:56.142Z,88.23
2019-01-15T20:07:38.593Z,88.23
2019-01-15T20:10:28.621Z,88.70
2019-01-15T20:13:04.730Z,88.70
2019-01-15T20:15:53.079Z,88.74
2019-01-15T20:18:37.732Z,88.74
2019-01-15T20:21:21.733Z,88.10
2019-01-15T20:24:09.868Z,88.10
2019-01-15T20:26:52.897Z,88.82
2019-01-15T20:29:38.363Z,88.75
2019-01-15T20:32:15.050Z,88.81
2019-01-15T20:34:55.020Z,88.81
2019-01-15T20:37:35.374Z,88.52
2019-01-15T20:40:14.102Z,88.87
2019-01-15T20:42:52.309Z,88.93
2019-01-15T20:45:33.939Z,88.78
2019-01-15T20:48:23.700Z,89.02
2019-01-15T20:51:05.867Z,89.02
2019-01-15T20:53:55.967Z,88.61
2019-01-15T20:56:44.216Z,89.14
2019-01-15T20:59:26.242Z,89.12
2019-01-15T21:02:11.835Z,89.31
2019-01-15T21:05:01.520Z,89.31
2019-01-15T21:07:51.566Z,89.30
2019-01-15T21:10:41.870Z,89.50
2019-01-15T21:13:25.757Z,89.96
2019-01-15T21:16:07.948Z,89.85
2019-01-15T21:18:50.370Z,89.57
2019-01-15T21:21:33.557Z,88.83
2019-01-15T21:24:22.951Z,88.83
2019-01-15T21:27:11.470Z,88.98
2019-01-15T21:29:59.458Z,88.95
2019-01-15T21:32:47.740Z,89.43
2019-01-15T21:35:37.100Z,89.43
2019-01-15T21:41:17.905Z,90.53
2019-01-15T21:44:06.445Z,89.38
2019-01-15T21:46:54.130Z,90.31
2019-01-15T21:49:37.653Z,90.18
2019-01-15T21:52:17.207Z,90.18
2019-01-15T21:54:56.518Z,89.67
2019-01-15T21:57:38.793Z,89.86
2019-01-15T22:00:20.353Z,89.92
2019-01-15T22:03:10.221Z,89.92
2019-01-15T22:05:51.220Z,89.89
2019-01-15T22:08:37.089Z,90.40
2019-01-15T22:11:14.900Z,89.67
2019-01-15T22:14:03.173Z,89.67
2019-01-15T22:16:51.937Z,90.64
2019-01-15T22:19:41.306Z,89.84
2019-01-15T22:22:29.970Z,90.36
2019-01-15T22:25:18.101Z,90.42
2019-01-15T22:28:07.514Z,90.27
2019-01-15T22:30:49.838Z,90.49
2019-01-15T22:33:37.961Z,90.49
2019-01-15T22:36:26.212Z,90.71
2019-01-15T22:39:11.540Z,90.69
2019-01-15T22:41:53.367Z,90.48
2019-01-15T22:44:41.869Z,90.52
2019-01-15T22:47:24.800Z,90.51
2019-01-15T22:50:13.415Z,90.51
2019-01-15T22:52:55.775Z,90.56
2019-01-15T22:55:40.334Z,90.93
2019-01-15T22:58:28.432Z,91.50
2019-01-15T23:01:17.445Z,91.50
2019-01-15T23:03:56.519Z,90.79
2019-01-15T23:06:44.709Z,91.29
2019-01-15T23:09:32.828Z,91.30
2019-01-15T23:12:19.143Z,91.13
2019-01-15T23:15:00.373Z,90.78
2019-01-15T23:17:39.085Z,90.98
2019-01-15T23:20:40.854Z,90.12
2019-01-15T23:23:25.144Z,90.88
2019-01-15T23:26:03.723Z,90.51
2019-01-15T23:28:47.710Z,90.51
2019-01-15T23:31:28.658Z,90.66
2019-01-15T23:34:17.204Z,90.66
2019-01-15T23:37:00.112Z,91.31
2019-01-15T23:39:43.270Z,91.31
2019-01-15T23:42:31.379Z,90.98
2019-01-15T23:45:19.935Z,90.60
2019-01-15T23:48:09.904Z,90.60
2019-01-15T23:51:12.630Z,90.61
2019-01-15T23:53:56.427Z,90.97
2019-01-15T23:56:42.968Z,90.97
2019-01-15T23:59:32.625Z,90.05
